Sunday, October 22, 2017, 5:03 PM EDT
Back to Local

KBTP, Butler, Butler County Airport/k W Scholter Field

Location: Renfrew, PA, United States Lat: 40.783
Local Time: 5:03 PM EDT (21:03 GMT) Lon: -79.95
Time Zone: US/Eastern Elev: 1246 ft

Show me the last for .
Show Decoded

2017-10-22 15:56 METAR KBTP 221956Z AUTO 19006KT 10SM CLR 23/11 A3022 RMK AO2 SLP236 T02330111 =
2017-10-22 14:56 METAR KBTP 221856Z AUTO 19007KT 10SM CLR 23/11 A3023 RMK AO2 SLP239 T02330111 =
2017-10-22 13:56 METAR KBTP 221756Z AUTO 12004KT 10SM CLR 22/12 A3026 RMK AO2 SLP246 T02220117
                 10222 20072 58017 =
2017-10-22 12:56 METAR KBTP 221656Z AUTO VRB03KT 10SM CLR 22/12 A3029 RMK AO2 SLP256 T02170117 =
2017-10-22 11:56 METAR KBTP 221556Z AUTO 17006KT 10SM CLR 21/12 A3031 RMK AO2 SLP265 T02060117 =
2017-10-22 10:56 METAR KBTP 221456Z AUTO 12006KT 10SM CLR 18/11 A3031 RMK AO2 SLP267 T01780111
                 50001 =
2017-10-22 09:56 METAR KBTP 221356Z AUTO VRB04KT 10SM CLR 16/11 A3032 RMK AO2 SLP271 T01610111 =
2017-10-22 08:56 METAR KBTP 221256Z AUTO 00000KT 10SM CLR 10/09 A3032 RMK AO2 SLP273 T01000089 =
2017-10-22 07:56 METAR KBTP 221156Z AUTO 05003KT 9SM CLR 08/07 A3030 RMK AO2 SLP270 T00780067
                 10150 20067 50003 =
2017-10-22 06:56 METAR KBTP 221056Z AUTO 04003KT 6SM BR CLR 07/07 A3031 RMK AO2 SLP271 T00720067
                 =
2017-10-22 05:56 METAR KBTP 220956Z AUTO 05004KT 4SM BR CLR 07/07 A3030 RMK AO2 SLP267 T00720067
                 =
2017-10-22 04:56 METAR KBTP 220856Z AUTO 00000KT 9SM CLR 08/08 A3029 RMK AO2 SLP263 T00830078
                 53008 =
2017-10-22 03:56 METAR KBTP 220756Z AUTO 05003KT 9SM CLR 09/08 A3028 RMK AO2 SLP257 T00890083 =
2017-10-22 02:56 METAR KBTP 220656Z AUTO 00000KT 10SM CLR 11/09 A3027 RMK AO2 SLP255 T01060089 =
2017-10-22 01:56 METAR KBTP 220556Z AUTO 13003KT 10SM CLR 15/10 A3027 RMK AO2 SLP252 T01500100
                 10178 20122 56006 =
2017-10-22 00:56 METAR KBTP 220456Z AUTO 14004KT 10SM CLR 16/11 A3027 RMK AO2 SLP253 T01560106
                 402280033 =
2017-10-21 23:56 METAR KBTP 220356Z AUTO 13004KT 10SM CLR 13/10 A3028 RMK AO2 SLP257 T01330100 =
2017-10-21 22:56 METAR KBTP 220256Z AUTO 10003KT 10SM CLR 14/11 A3029 RMK AO2 SLP261 T01440106
                 50002 =
2017-10-21 21:56 METAR KBTP 220156Z AUTO 14003KT 10SM CLR 14/11 A3029 RMK AO2 SLP264 T01440111 =
2017-10-21 20:56 METAR KBTP 220056Z AUTO 00000KT 10SM CLR 18/11 A3028 RMK AO2 SLP261 T01780106 =
2017-10-21 19:56 METAR KBTP 212356Z AUTO 08003KT 10SM CLR 16/12 A3028 RMK AO2 SLP263 T01560117
                 10228 20156 53003 =
2017-10-21 18:56 METAR KBTP 212256Z AUTO 00000KT 10SM CLR 18/12 A3028 RMK AO2 SLP262 T01780117 =
2017-10-21 17:56 METAR KBTP 212156Z AUTO 00000KT 10SM CLR 21/12 A3027 RMK AO2 SLP258 T02060117
                 TSNO =

Support USWX by starting your Amazon purchase here.